createdAt,value
2023-02-19T00:00:59.078Z,97171.09
2023-02-19T00:02:00.963Z,97178.09
2023-02-19T00:03:04.034Z,97182.47
2023-02-19T00:04:07.698Z,97191.25
2023-02-19T00:05:09.635Z,97189.53
2023-02-19T00:06:11.726Z,97180.25
2023-02-19T00:07:13.567Z,97175.84
2023-02-19T00:08:15.482Z,97174.22
2023-02-19T00:09:18.464Z,97185.47
2023-02-19T00:10:20.309Z,97190.00
2023-02-19T00:11:23.123Z,97173.69
2023-02-19T00:12:25.045Z,97171.47
2023-02-19T00:13:26.871Z,97184.81
2023-02-19T00:14:28.807Z,97174.94
2023-02-19T00:15:32.741Z,97177.16
2023-02-19T00:16:36.135Z,97175.63
2023-02-19T00:17:37.947Z,97186.25
2023-02-19T00:18:40.322Z,97187.31
2023-02-19T00:19:42.199Z,97183.97
2023-02-19T00:20:44.095Z,97175.00
2023-02-19T00:21:46.196Z,97168.94
2023-02-19T00:22:48.100Z,97177.78
2023-02-19T00:23:51.065Z,97183.00
2023-02-19T00:24:52.991Z,97188.19
2023-02-19T00:25:55.420Z,97179.00
2023-02-19T00:26:57.277Z,97175.16
2023-02-19T00:27:59.124Z,97182.72
2023-02-19T00:29:01.657Z,97192.78
2023-02-19T00:30:03.538Z,97176.09
2023-02-19T00:31:09.840Z,97177.91
2023-02-19T00:32:12.031Z,97184.31
2023-02-19T00:33:14.050Z,97191.06
2023-02-19T00:34:16.631Z,97189.06
2023-02-19T00:35:18.473Z,97179.28
2023-02-19T00:36:21.105Z,97175.31
2023-02-19T00:37:23.047Z,97172.97
2023-02-19T00:38:24.874Z,97176.41
2023-02-19T00:39:26.765Z,97190.31
2023-02-19T00:40:28.678Z,97191.16
2023-02-19T00:41:30.953Z,97194.03
2023-02-19T00:42:32.747Z,97190.00
2023-02-19T00:43:34.544Z,97183.13
2023-02-19T00:44:36.477Z,97184.53
2023-02-19T00:45:38.595Z,97186.97
2023-02-19T00:46:41.835Z,97180.38
2023-02-19T00:47:43.770Z,97184.59
2023-02-19T00:48:45.931Z,97181.00
2023-02-19T00:49:47.823Z,97183.16
2023-02-19T00:50:49.698Z,97182.56
2023-02-19T00:51:52.675Z,97182.13
2023-02-19T00:52:54.537Z,97187.31
2023-02-19T00:53:56.431Z,97168.47
2023-02-19T00:54:58.254Z,97164.28
2023-02-19T00:56:00.088Z,97168.44
2023-02-19T00:57:01.981Z,97169.13
2023-02-19T00:58:03.872Z,97176.50
2023-02-19T00:59:05.748Z,97170.72
2023-02-19T01:00:07.962Z,97173.38
2023-02-19T01:01:11.250Z,97168.59
2023-02-19T01:02:13.343Z,97162.59
2023-02-19T01:03:15.219Z,97165.16
2023-02-19T01:04:17.033Z,97163.09
2023-02-19T01:05:19.060Z,97167.75
2023-02-19T01:06:21.405Z,97163.56
2023-02-19T01:07:23.335Z,97170.59
2023-02-19T01:08:25.184Z,97171.22
2023-02-19T01:09:27.022Z,97168.03
2023-02-19T01:10:28.900Z,97163.84
2023-02-19T01:11:30.803Z,97144.38
2023-02-19T01:12:33.305Z,97149.13
2023-02-19T01:13:35.196Z,97150.28
2023-02-19T01:14:37.060Z,97146.84
2023-02-19T01:15:39.317Z,97150.03
2023-02-19T01:16:41.156Z,97149.03
2023-02-19T01:17:42.994Z,97145.44
2023-02-19T01:18:45.717Z,97139.59
2023-02-19T01:19:47.638Z,97140.41
2023-02-19T01:20:49.520Z,97139.25
2023-02-19T01:21:51.316Z,97140.22
2023-02-19T01:22:53.296Z,97139.03
2023-02-19T01:23:55.722Z,97135.63
2023-02-19T01:24:57.612Z,97139.78
2023-02-19T01:25:59.454Z,97143.63
2023-02-19T01:27:01.272Z,97133.44
2023-02-19T01:28:03.133Z,97134.66
2023-02-19T01:29:05.328Z,97135.06
2023-02-19T01:30:07.455Z,97134.88
2023-02-19T01:31:12.941Z,97135.50
2023-02-19T01:32:15.051Z,97130.13
2023-02-19T01:33:16.844Z,97132.28
2023-02-19T01:34:18.713Z,97125.88
2023-02-19T01:35:20.630Z,97128.13
2023-02-19T01:36:22.880Z,97127.88
2023-02-19T01:37:24.821Z,97137.00
2023-02-19T01:38:26.658Z,97130.91
2023-02-19T01:39:28.533Z,97126.72
2023-02-19T01:40:30.425Z,97128.69
2023-02-19T01:41:34.438Z,97124.72
2023-02-19T01:42:36.283Z,97120.16
2023-02-19T01:43:57.701Z,97117.16
2023-02-19T01:45:19.831Z,97118.91
2023-02-19T01:46:21.917Z,97116.63
2023-02-19T01:47:23.893Z,97121.66
2023-02-19T01:48:27.987Z,97117.63
2023-02-19T01:49:32.074Z,97113.41
2023-02-19T01:50:37.456Z,97122.63
2023-02-19T01:51:42.020Z,97120.41
2023-02-19T01:52:43.885Z,97113.03
2023-02-19T01:53:48.074Z,97109.06
2023-02-19T01:54:50.627Z,97106.81
2023-02-19T01:55:55.309Z,97120.28
2023-02-19T01:56:57.774Z,97117.28
2023-02-19T01:58:00.441Z,97115.75
2023-02-19T01:59:02.550Z,97112.97
2023-02-19T02:00:10.450Z,97097.47
2023-02-19T02:01:13.065Z,97105.28
2023-02-19T02:02:15.471Z,97099.91
2023-02-19T02:03:18.008Z,97106.88
2023-02-19T02:04:19.844Z,97116.88
2023-02-19T02:05:30.044Z,97122.22
2023-02-19T02:06:34.752Z,97114.94
2023-02-19T02:07:55.008Z,97124.72
2023-02-19T02:09:16.822Z,97117.13
2023-02-19T02:10:21.317Z,97111.91
2023-02-19T02:11:23.293Z,97098.34
2023-02-19T02:12:25.111Z,97094.72
2023-02-19T02:13:27.156Z,97101.56
2023-02-19T02:14:31.254Z,97107.22
2023-02-19T02:15:39.781Z,97104.16
2023-02-19T02:16:53.785Z,97102.13
2023-02-19T02:18:17.411Z,97098.28
2023-02-19T02:19:25.276Z,97090.03
2023-02-19T02:20:50.115Z,97091.91
2023-02-19T02:21:57.900Z,97095.34
2023-02-19T02:22:59.686Z,97109.59
2023-02-19T02:24:16.518Z,97100.81
2023-02-19T02:25:41.747Z,97099.19
2023-02-19T02:26:43.565Z,97091.81
2023-02-19T02:27:51.406Z,97086.44
2023-02-19T02:28:56.291Z,97088.88
2023-02-19T02:29:58.160Z,97091.25
2023-02-19T02:31:03.111Z,97090.84
2023-02-19T02:32:10.675Z,97092.44
2023-02-19T02:33:27.559Z,97081.66
2023-02-19T02:34:41.540Z,97069.19
2023-02-19T02:35:50.003Z,97070.44
2023-02-19T02:36:55.399Z,97082.84
2023-02-19T02:38:01.305Z,97083.84
2023-02-19T02:39:05.415Z,97068.78
2023-02-19T02:40:08.525Z,97057.56
2023-02-19T02:41:11.643Z,97073.38
2023-02-19T02:42:28.596Z,97072.38
2023-02-19T02:43:30.450Z,97086.56
2023-02-19T02:44:36.392Z,97078.00
2023-02-19T02:45:38.749Z,97078.63
2023-02-19T02:46:45.392Z,97065.00
2023-02-19T02:47:54.960Z,97055.59
2023-02-19T02:49:02.384Z,97063.78
2023-02-19T02:50:07.326Z,97068.63
2023-02-19T02:51:09.409Z,97052.63
2023-02-19T02:52:31.287Z,97050.81
2023-02-19T02:53:55.813Z,97082.25
2023-02-19T02:55:03.634Z,97081.63
2023-02-19T02:56:05.667Z,97062.59
2023-02-19T02:57:09.849Z,97047.41
2023-02-19T02:58:13.413Z,97062.66
2023-02-19T02:59:18.193Z,97058.63
2023-02-19T03:00:20.176Z,97061.22
2023-02-19T03:01:48.364Z,97053.00
2023-02-19T03:02:50.383Z,97044.56
2023-02-19T03:03:55.156Z,97047.81
2023-02-19T03:05:21.312Z,97052.31
2023-02-19T03:06:25.709Z,97054.84
2023-02-19T03:07:30.178Z,97052.88
2023-02-19T03:08:36.260Z,97046.13
2023-02-19T03:09:41.634Z,97048.97
2023-02-19T03:10:56.805Z,97054.16
2023-02-19T03:12:20.633Z,97051.38
2023-02-19T03:13:54.029Z,97050.19
2023-02-19T03:15:18.406Z,97044.63
2023-02-19T03:16:43.022Z,97047.34
2023-02-19T03:18:11.957Z,97043.53
2023-02-19T03:19:21.969Z,97050.75
2023-02-19T03:20:24.634Z,97052.38
2023-02-19T03:21:27.829Z,97043.97
2023-02-19T03:22:31.766Z,97047.97
2023-02-19T03:23:52.547Z,97035.19
2023-02-19T03:25:39.020Z,97031.88
2023-02-19T03:26:41.673Z,97051.06
2023-02-19T03:27:44.569Z,97046.78
2023-02-19T03:29:06.499Z,97036.94
2023-02-19T03:30:11.150Z,97029.75
2023-02-19T03:31:15.850Z,97041.97
2023-02-19T03:32:22.625Z,97038.53
2023-02-19T03:33:27.514Z,97051.75
2023-02-19T03:34:32.969Z,97032.72
2023-02-19T03:35:43.626Z,97029.91
2023-02-19T03:36:48.596Z,97043.22
2023-02-19T03:37:58.954Z,97036.31
2023-02-19T03:39:03.153Z,97033.28
2023-02-19T03:40:05.109Z,97025.13
2023-02-19T03:41:24.346Z,97035.78
2023-02-19T03:42:46.500Z,97050.66
2023-02-19T03:43:56.079Z,97042.91
2023-02-19T03:45:16.649Z,97032.94
2023-02-19T03:46:23.882Z,97021.34
2023-02-19T03:47:27.894Z,97033.16
2023-02-19T03:48:36.982Z,97034.34
2023-02-19T03:49:49.214Z,97033.28
2023-02-19T03:51:18.288Z,97023.91
2023-02-19T03:52:29.541Z,97020.47
2023-02-19T03:53:43.685Z,97021.09
2023-02-19T03:54:53.290Z,97014.53
2023-02-19T03:56:10.906Z,97012.97
2023-02-19T03:57:31.690Z,97008.78
2023-02-19T03:58:41.977Z,97020.16
2023-02-19T03:59:49.249Z,97015.75
2023-02-19T04:01:14.267Z,97010.38
2023-02-19T04:02:19.871Z,97008.03
2023-02-19T04:03:27.529Z,97010.84
2023-02-19T04:04:38.766Z,97010.06
2023-02-19T04:05:45.357Z,97024.00
2023-02-19T04:06:48.895Z,97037.13
2023-02-19T04:07:53.619Z,97026.28
2023-02-19T04:08:57.794Z,97016.72
2023-02-19T04:09:59.822Z,97021.28
2023-02-19T04:11:02.024Z,97019.31
2023-02-19T04:12:04.563Z,97006.31
2023-02-19T04:13:09.604Z,97017.13
2023-02-19T04:14:15.477Z,97016.94
2023-02-19T04:15:21.424Z,97020.28
2023-02-19T04:16:24.799Z,97014.03
2023-02-19T04:17:32.705Z,97018.81
2023-02-19T04:18:37.268Z,97017.19
2023-02-19T04:19:40.399Z,97011.63
2023-02-19T04:20:46.942Z,97008.66
2023-02-19T04:21:51.077Z,97012.13
2023-02-19T04:22:53.386Z,97016.31
2023-02-19T04:23:56.511Z,97023.94
2023-02-19T04:24:58.459Z,97025.31
2023-02-19T04:26:01.722Z,97007.09
2023-02-19T04:27:04.830Z,97012.13
2023-02-19T04:28:07.692Z,96996.94
2023-02-19T04:29:09.663Z,97000.13
2023-02-19T04:30:13.131Z,97008.56
2023-02-19T04:31:15.154Z,97003.13
2023-02-19T04:32:17.168Z,97009.94
2023-02-19T04:33:19.077Z,97000.97
2023-02-19T04:34:20.888Z,96992.16
2023-02-19T04:35:22.814Z,96998.97
2023-02-19T04:36:24.667Z,97000.97
2023-02-19T04:37:26.673Z,96989.31
2023-02-19T04:38:28.606Z,96991.31
2023-02-19T04:39:30.394Z,96995.81
2023-02-19T04:40:32.276Z,96995.16
2023-02-19T04:41:34.582Z,96985.94
2023-02-19T04:42:36.436Z,96989.34
2023-02-19T04:43:38.375Z,97002.34
2023-02-19T04:44:40.253Z,96997.25
2023-02-19T04:45:42.123Z,96999.34
2023-02-19T04:46:44.098Z,97000.44
2023-02-19T04:47:46.125Z,96997.22
2023-02-19T04:48:47.970Z,96999.47
2023-02-19T04:49:49.884Z,97000.44
2023-02-19T04:50:51.729Z,96986.47
2023-02-19T04:51:53.539Z,96996.47
2023-02-19T04:52:55.553Z,96995.13
2023-02-19T04:53:57.451Z,96978.81
2023-02-19T04:54:59.383Z,96989.81
2023-02-19T04:56:08.610Z,96991.00
2023-02-19T04:57:10.540Z,96994.50
2023-02-19T04:58:12.389Z,96991.53
2023-02-19T04:59:14.260Z,96996.81
2023-02-19T05:00:16.103Z,97008.47
2023-02-19T05:01:18.077Z,97010.63
2023-02-19T05:02:20.058Z,97009.47
2023-02-19T05:03:21.991Z,97006.66
2023-02-19T05:04:24.412Z,97009.25
2023-02-19T05:05:26.328Z,97001.28
2023-02-19T05:06:28.173Z,96995.91
2023-02-19T05:07:30.156Z,96990.34
2023-02-19T05:08:32.036Z,96994.91
2023-02-19T05:09:33.904Z,96993.88
2023-02-19T05:10:35.703Z,96993.03
2023-02-19T05:11:37.633Z,96984.63
2023-02-19T05:12:39.519Z,96981.41
2023-02-19T05:13:41.532Z,96990.66
2023-02-19T05:14:43.511Z,97002.81
2023-02-19T05:15:54.590Z,97002.56
2023-02-19T05:16:56.454Z,96994.75
2023-02-19T05:17:58.290Z,96995.72
2023-02-19T05:19:00.252Z,97006.13
2023-02-19T05:20:02.177Z,97005.41
2023-02-19T05:21:04.148Z,96994.59
2023-02-19T05:22:05.994Z,97003.91
2023-02-19T05:23:07.822Z,96998.03
2023-02-19T05:24:10.229Z,96993.03
2023-02-19T05:25:12.024Z,96998.66
2023-02-19T05:26:20.265Z,96992.09
2023-02-19T05:27:22.207Z,96977.34
2023-02-19T05:28:29.174Z,96987.44
2023-02-19T05:29:31.985Z,96997.63
2023-02-19T05:30:33.972Z,96994.22
2023-02-19T05:31:36.232Z,96989.47
2023-02-19T05:32:38.403Z,96991.88
2023-02-19T05:33:41.752Z,97003.34
2023-02-19T05:34:43.506Z,96995.53
2023-02-19T05:35:46.741Z,96983.16
2023-02-19T05:36:48.606Z,96983.53
2023-02-19T05:37:50.453Z,96976.69
2023-02-19T05:38:53.326Z,96973.91
2023-02-19T05:39:55.197Z,96989.69
2023-02-19T05:40:56.986Z,96993.66
2023-02-19T05:41:58.893Z,96992.69
2023-02-19T05:43:00.725Z,97003.09
2023-02-19T05:44:02.588Z,97000.66
2023-02-19T05:45:04.633Z,96993.03
2023-02-19T05:46:07.173Z,96984.63
2023-02-19T05:47:09.109Z,96991.72
2023-02-19T05:48:11.447Z,96999.81
2023-02-19T05:49:13.448Z,96994.63
2023-02-19T05:50:15.317Z,96983.88
2023-02-19T05:51:18.731Z,96982.50
2023-02-19T05:52:20.710Z,96982.50
2023-02-19T05:53:22.599Z,96977.31
2023-02-19T05:54:24.450Z,96976.50
2023-02-19T05:55:26.242Z,96982.50
2023-02-19T05:56:35.897Z,96979.91
2023-02-19T05:57:43.612Z,96976.75
2023-02-19T05:58:45.680Z,96984.00
2023-02-19T05:59:47.564Z,96986.44
2023-02-19T06:00:49.466Z,96990.03
2023-02-19T06:01:52.801Z,96980.25
2023-02-19T06:02:54.980Z,96970.25
2023-02-19T06:03:57.888Z,96977.09
2023-02-19T06:04:59.964Z,96996.25
2023-02-19T06:06:03.742Z,96993.25
2023-02-19T06:07:05.633Z,96994.59
2023-02-19T06:08:07.562Z,96988.94
2023-02-19T06:09:09.625Z,96984.72
2023-02-19T06:10:12.473Z,96989.56
2023-02-19T06:11:14.304Z,96990.22
2023-02-19T06:12:16.125Z,96991.81
2023-02-19T06:13:17.973Z,96987.22
2023-02-19T06:14:19.880Z,96996.66
2023-02-19T06:15:22.135Z,96999.88
2023-02-19T06:16:24.202Z,96998.06
2023-02-19T06:17:26.423Z,96997.72
2023-02-19T06:18:28.235Z,96999.91
2023-02-19T06:19:30.112Z,97002.34
2023-02-19T06:20:33.274Z,97002.16
2023-02-19T06:21:35.548Z,97009.16
2023-02-19T06:22:37.458Z,97004.75
2023-02-19T06:23:39.766Z,96999.13
2023-02-19T06:24:41.674Z,97005.50
2023-02-19T06:25:43.572Z,97005.06
2023-02-19T06:26:45.481Z,97000.94
2023-02-19T06:27:47.599Z,97005.34
2023-02-19T06:28:50.210Z,97002.19
2023-02-19T06:29:52.191Z,97007.41
2023-02-19T06:30:53.996Z,97009.66
2023-02-19T06:31:55.958Z,97014.47
2023-02-19T06:32:57.966Z,97016.72
2023-02-19T06:33:59.842Z,97017.16
2023-02-19T06:35:01.728Z,97031.56
2023-02-19T06:36:04.383Z,97029.75
2023-02-19T06:37:06.177Z,97001.16
2023-02-19T06:38:08.044Z,97009.97
2023-02-19T06:39:10.160Z,97011.69
2023-02-19T06:40:12.093Z,97005.06
2023-02-19T06:41:14.222Z,97021.41
2023-02-19T06:42:16.313Z,97017.72
2023-02-19T06:43:18.271Z,97034.31
2023-02-19T06:44:20.776Z,97040.31
2023-02-19T06:45:22.702Z,97038.44
2023-02-19T06:46:24.765Z,97035.06
2023-02-19T06:47:26.653Z,97033.06
2023-02-19T06:48:29.119Z,97034.50
2023-02-19T06:49:30.944Z,97029.91
2023-02-19T06:50:32.905Z,97035.91
2023-02-19T06:51:34.903Z,97040.75
2023-02-19T06:52:36.804Z,97045.59
2023-02-19T06:53:38.690Z,97041.47
2023-02-19T06:54:40.607Z,97041.09
2023-02-19T06:55:42.555Z,97040.47
2023-02-19T06:56:46.933Z,97040.56
2023-02-19T06:57:48.986Z,97035.56
2023-02-19T06:58:51.116Z,97041.81
2023-02-19T06:59:53.097Z,97058.66
2023-02-19T07:00:55.637Z,97047.47
2023-02-19T07:01:57.489Z,97053.41
2023-02-19T07:02:59.362Z,97049.84
2023-02-19T07:04:01.419Z,97054.47
2023-02-19T07:05:03.273Z,97058.31
2023-02-19T07:06:05.318Z,97052.94
2023-02-19T07:07:07.255Z,97033.28
2023-02-19T07:08:09.089Z,97045.88
2023-02-19T07:09:11.438Z,97048.81
2023-02-19T07:10:13.263Z,97062.63
2023-02-19T07:11:15.280Z,97050.63
2023-02-19T07:12:17.075Z,97042.44
2023-02-19T07:13:18.929Z,97037.69
2023-02-19T07:14:21.804Z,97042.72
2023-02-19T07:15:23.703Z,97055.72
2023-02-19T07:16:25.809Z,97058.94
2023-02-19T07:17:27.663Z,97044.13
2023-02-19T07:18:30.913Z,97040.56
2023-02-19T07:19:32.889Z,97053.16
2023-02-19T07:20:34.777Z,97064.75
2023-02-19T07:21:38.097Z,97055.16
2023-02-19T07:22:39.915Z,97058.00
2023-02-19T07:23:42.596Z,97051.63
2023-02-19T07:24:46.859Z,97054.84
2023-02-19T07:25:49.661Z,97055.03
2023-02-19T07:26:51.537Z,97051.63
2023-02-19T07:27:53.424Z,97050.03
2023-02-19T07:28:55.330Z,97044.44
2023-02-19T07:29:57.279Z,97049.47
2023-02-19T07:31:02.902Z,97060.50
2023-02-19T07:32:05.058Z,97053.13
2023-02-19T07:33:09.411Z,97052.91
2023-02-19T07:34:12.411Z,97063.53
2023-02-19T07:35:14.329Z,97064.06
2023-02-19T07:36:17.361Z,97058.06
2023-02-19T07:37:19.229Z,97054.28
2023-02-19T07:38:21.988Z,97060.94
2023-02-19T07:39:23.912Z,97069.34
2023-02-19T07:40:25.740Z,97060.94
2023-02-19T07:41:28.084Z,97061.72
2023-02-19T07:42:30.070Z,97058.50
2023-02-19T07:43:33.620Z,97061.28
2023-02-19T07:44:35.511Z,97062.09
2023-02-19T07:45:37.414Z,97078.13
2023-02-19T07:46:39.613Z,97079.94
2023-02-19T07:47:41.504Z,97061.91
2023-02-19T07:48:44.585Z,97061.28
2023-02-19T07:49:46.448Z,97062.09
2023-02-19T07:51:08.666Z,97079.16
2023-02-19T07:52:10.679Z,97076.34
2023-02-19T07:53:12.548Z,97069.16
2023-02-19T07:54:14.482Z,97076.41
2023-02-19T07:55:16.392Z,97075.84
2023-02-19T07:56:18.956Z,97079.25
2023-02-19T07:57:20.842Z,97077.88
2023-02-19T07:58:22.711Z,97076.72
2023-02-19T07:59:24.599Z,97075.09
2023-02-19T08:00:26.936Z,97065.88
2023-02-19T08:01:47.132Z,97069.47
2023-02-19T08:03:00.891Z,97087.25
2023-02-19T08:04:02.679Z,97091.47
2023-02-19T08:05:05.211Z,97086.00
2023-02-19T08:06:07.323Z,97091.41
2023-02-19T08:07:09.275Z,97083.59
2023-02-19T08:08:14.969Z,97070.78
2023-02-19T08:09:16.806Z,97079.56
2023-02-19T08:10:37.001Z,97110.97
2023-02-19T08:11:57.184Z,97089.00
2023-02-19T08:13:28.869Z,97084.59
2023-02-19T08:14:30.744Z,97059.75
2023-02-19T08:15:33.181Z,97093.94
2023-02-19T08:16:42.865Z,97110.72
2023-02-19T08:17:45.104Z,97100.13
2023-02-19T08:18:48.222Z,97083.34
2023-02-19T08:19:50.056Z,97088.38
2023-02-19T08:20:52.026Z,97102.91
2023-02-19T08:21:53.886Z,97122.59
2023-02-19T08:22:55.828Z,97090.94
2023-02-19T08:23:57.741Z,97083.75
2023-02-19T08:24:59.628Z,97090.41
2023-02-19T08:26:02.616Z,97085.25
2023-02-19T08:27:04.587Z,97094.75
2023-02-19T08:28:06.960Z,97089.78
2023-02-19T08:29:08.827Z,97099.22
2023-02-19T08:30:11.031Z,97096.63
2023-02-19T08:31:13.406Z,97085.81
2023-02-19T08:32:15.823Z,97096.84
2023-02-19T08:33:19.445Z,97098.47
2023-02-19T08:34:21.358Z,97081.50
2023-02-19T08:35:23.232Z,97085.06
2023-02-19T08:36:25.169Z,97076.66
2023-02-19T08:37:27.100Z,97093.88
2023-02-19T08:38:29.009Z,97112.63
2023-02-19T08:39:30.903Z,97110.25
2023-02-19T08:40:33.450Z,97083.03
2023-02-19T08:41:35.255Z,97073.59
2023-02-19T08:42:37.322Z,97103.81
2023-02-19T08:43:39.713Z,97109.13
2023-02-19T08:44:44.125Z,97122.13
2023-02-19T08:45:47.919Z,97112.97
2023-02-19T08:46:49.791Z,97097.97
2023-02-19T08:47:51.750Z,97094.13
2023-02-19T08:48:53.674Z,97084.81
2023-02-19T08:49:55.572Z,97082.97
2023-02-19T08:50:58.709Z,97093.38
2023-02-19T08:52:00.703Z,97086.97
2023-02-19T08:53:03.165Z,97091.81
2023-02-19T08:54:05.106Z,97108.69
2023-02-19T08:55:07.164Z,97126.09
2023-02-19T08:56:13.927Z,97118.63
2023-02-19T08:57:15.854Z,97109.84
2023-02-19T08:58:17.789Z,97085.72
2023-02-19T08:59:20.947Z,97094.13
2023-02-19T09:00:22.892Z,97095.50
2023-02-19T09:01:24.898Z,97114.50
2023-02-19T09:02:26.929Z,97096.28
2023-02-19T09:03:28.821Z,97084.34
2023-02-19T09:04:30.839Z,97096.63
2023-02-19T09:05:32.830Z,97119.66
2023-02-19T09:06:34.716Z,97114.25
2023-02-19T09:07:36.619Z,97109.84
2023-02-19T09:08:38.426Z,97132.66
2023-02-19T09:09:40.873Z,97117.84
2023-02-19T09:10:42.648Z,97113.06
2023-02-19T09:11:44.483Z,97110.47
2023-02-19T09:12:46.333Z,97118.91
2023-02-19T09:13:48.394Z,97095.13
2023-02-19T09:14:50.321Z,97083.72
2023-02-19T09:15:52.124Z,97096.72
2023-02-19T09:16:53.955Z,97111.19
2023-02-19T09:17:55.805Z,97132.63
2023-02-19T09:18:57.739Z,97107.34
2023-02-19T09:19:59.567Z,97107.50
2023-02-19T09:21:05.482Z,97100.81
2023-02-19T09:22:07.320Z,97094.72
2023-02-19T09:23:09.301Z,97103.81
2023-02-19T09:24:11.181Z,97121.50
2023-02-19T09:25:13.112Z,97120.75
2023-02-19T09:26:15.031Z,97098.59
2023-02-19T09:27:18.249Z,97082.00
2023-02-19T09:28:21.321Z,97083.25
2023-02-19T09:29:25.041Z,97090.66
2023-02-19T09:30:27.021Z,97091.28
2023-02-19T09:31:28.995Z,97103.75
2023-02-19T09:32:31.653Z,97106.75
2023-02-19T09:33:33.763Z,97120.59
2023-02-19T09:34:35.590Z,97126.22
2023-02-19T09:35:41.470Z,97107.97
2023-02-19T09:36:43.510Z,97069.75
2023-02-19T09:37:45.520Z,97099.66
2023-02-19T09:38:47.417Z,97096.09
2023-02-19T09:39:49.348Z,97118.78
2023-02-19T09:40:51.201Z,97107.16
2023-02-19T09:41:55.660Z,97102.00
2023-02-19T09:42:58.660Z,97100.59
2023-02-19T09:44:02.762Z,97094.38
2023-02-19T09:45:05.484Z,97108.25
2023-02-19T09:46:12.571Z,97123.50
2023-02-19T09:47:24.419Z,97118.09
2023-02-19T09:48:26.437Z,97096.66
2023-02-19T09:49:36.944Z,97099.88
2023-02-19T09:50:41.575Z,97104.91
2023-02-19T09:51:46.958Z,97096.06
2023-02-19T09:52:57.523Z,97089.88
2023-02-19T09:54:00.087Z,97092.47
2023-02-19T09:55:03.973Z,97096.47
2023-02-19T09:56:06.649Z,97096.31
2023-02-19T09:57:20.173Z,97095.94
2023-02-19T09:58:26.326Z,97094.72
2023-02-19T09:59:48.399Z,97102.38
2023-02-19T10:00:51.682Z,97107.81
2023-02-19T10:02:04.966Z,97097.78
2023-02-19T10:03:11.766Z,97084.75
2023-02-19T10:04:14.070Z,97080.75
2023-02-19T10:05:16.905Z,97099.44
2023-02-19T10:06:30.475Z,97117.47
2023-02-19T10:07:38.853Z,97109.88
2023-02-19T10:08:41.059Z,97111.09
2023-02-19T10:09:45.606Z,97090.59
2023-02-19T10:10:48.002Z,97087.78
2023-02-19T10:11:50.709Z,97082.16
2023-02-19T10:12:54.601Z,97079.75
2023-02-19T10:14:05.542Z,97068.09
2023-02-19T10:15:18.556Z,97071.53
2023-02-19T10:16:27.994Z,97075.72
2023-02-19T10:17:31.889Z,97093.41
2023-02-19T10:18:41.964Z,97099.84
2023-02-19T10:19:44.231Z,97139.81
2023-02-19T10:20:46.879Z,97159.09
2023-02-19T10:21:49.346Z,97151.47
2023-02-19T10:22:57.310Z,97111.47
2023-02-19T10:24:03.112Z,97156.75
2023-02-19T10:25:05.075Z,97146.81
2023-02-19T10:26:06.979Z,97181.38
2023-02-19T10:27:15.153Z,97195.56
2023-02-19T10:28:22.641Z,97204.13
2023-02-19T10:29:25.263Z,97191.38
2023-02-19T10:30:31.976Z,97202.94
2023-02-19T10:31:34.232Z,97198.31
2023-02-19T10:32:36.130Z,97193.09
2023-02-19T10:33:48.540Z,97194.69
2023-02-19T10:35:09.238Z,97189.44
2023-02-19T10:36:22.580Z,97183.59
2023-02-19T10:37:24.485Z,97182.84
2023-02-19T10:38:31.962Z,97189.28
2023-02-19T10:39:39.370Z,97193.50
2023-02-19T10:40:44.657Z,97202.28
2023-02-19T10:41:46.935Z,97206.44
2023-02-19T10:42:50.561Z,97206.44
2023-02-19T10:43:58.430Z,97219.63
2023-02-19T10:45:03.510Z,97219.38
2023-02-19T10:46:08.408Z,97232.00
2023-02-19T10:47:19.263Z,97254.59
2023-02-19T10:48:41.580Z,97272.59
2023-02-19T10:49:46.257Z,97274.94
2023-02-19T10:50:57.681Z,97259.50
2023-02-19T10:52:18.086Z,97267.84
2023-02-19T10:53:25.815Z,97260.88
2023-02-19T10:54:36.596Z,97235.19
2023-02-19T10:55:41.052Z,97244.81
2023-02-19T10:56:43.042Z,97256.75
2023-02-19T10:57:46.930Z,97244.19
2023-02-19T10:58:48.823Z,97240.41
2023-02-19T10:59:51.670Z,97255.66
2023-02-19T11:01:10.315Z,97267.50
2023-02-19T11:02:21.954Z,97254.09
2023-02-19T11:03:24.327Z,97221.13
2023-02-19T11:04:34.504Z,97223.00
2023-02-19T11:05:38.755Z,97241.66
2023-02-19T11:06:40.680Z,97237.81
2023-02-19T11:07:45.681Z,97243.38
2023-02-19T11:08:53.723Z,97245.00
2023-02-19T11:09:56.381Z,97248.97
2023-02-19T11:10:59.036Z,97256.16
2023-02-19T11:12:01.858Z,97246.56
2023-02-19T11:13:05.514Z,97245.31
2023-02-19T11:14:18.784Z,97238.13
2023-02-19T11:15:24.308Z,97228.63
2023-02-19T11:16:38.093Z,97219.94
2023-02-19T11:17:40.191Z,97220.41
2023-02-19T11:18:43.359Z,97202.22
2023-02-19T11:19:48.882Z,97220.19
2023-02-19T11:20:57.748Z,97220.00
2023-02-19T11:22:00.840Z,97217.66
2023-02-19T11:23:14.073Z,97209.00
2023-02-19T11:24:25.644Z,97201.00
2023-02-19T11:25:28.109Z,97214.22
2023-02-19T11:26:32.504Z,97215.84
2023-02-19T11:27:34.625Z,97212.44
2023-02-19T11:28:39.164Z,97201.38
2023-02-19T11:29:41.115Z,97205.59
2023-02-19T11:30:44.179Z,97216.19
2023-02-19T11:31:46.956Z,97212.19
2023-02-19T11:32:48.896Z,97225.41
2023-02-19T11:33:55.488Z,97207.38
2023-02-19T11:35:27.215Z,97210.16
2023-02-19T11:36:36.209Z,97221.00
2023-02-19T11:37:53.249Z,97215.41
2023-02-19T11:38:59.028Z,97218.63
2023-02-19T11:40:01.345Z,97228.25
2023-02-19T11:41:23.597Z,97225.81
2023-02-19T11:42:31.566Z,97210.81
2023-02-19T11:43:36.923Z,97216.63
2023-02-19T11:44:57.792Z,97210.44
2023-02-19T11:46:01.259Z,97193.78
2023-02-19T11:47:15.722Z,97198.19
2023-02-19T11:48:35.700Z,97203.38
2023-02-19T11:49:49.146Z,97219.56
2023-02-19T11:51:14.405Z,97216.13
2023-02-19T11:52:22.517Z,97209.50
2023-02-19T11:53:24.587Z,97207.22
2023-02-19T11:54:26.461Z,97203.16
2023-02-19T11:55:50.187Z,97196.97
2023-02-19T11:57:07.568Z,97196.19
2023-02-19T11:58:28.190Z,97193.34
2023-02-19T11:59:39.419Z,97180.94
2023-02-19T12:01:01.985Z,97189.38
2023-02-19T12:02:21.453Z,97197.16
2023-02-19T12:03:26.109Z,97189.28
2023-02-19T12:04:54.713Z,97187.44
2023-02-19T12:05:56.558Z,97174.59
2023-02-19T12:07:18.039Z,97176.22
2023-02-19T12:08:49.245Z,97168.94
2023-02-19T12:09:59.030Z,97180.19
2023-02-19T12:11:16.115Z,97171.00
2023-02-19T12:12:18.092Z,97174.47
2023-02-19T12:13:30.237Z,97178.13
2023-02-19T12:14:35.232Z,97170.53
2023-02-19T12:15:44.855Z,97172.56
2023-02-19T12:16:54.850Z,97166.75
2023-02-19T12:17:59.874Z,97171.56
2023-02-19T12:19:04.558Z,97163.75
2023-02-19T12:20:18.050Z,97165.19
2023-02-19T12:21:29.332Z,97160.59
2023-02-19T12:22:33.843Z,97162.00
2023-02-19T12:23:45.089Z,97154.97
2023-02-19T12:25:00.337Z,97167.84
2023-02-19T12:26:02.213Z,97164.03
2023-02-19T12:27:10.058Z,97175.06
2023-02-19T12:28:21.464Z,97175.25
2023-02-19T12:29:43.564Z,97161.25
2023-02-19T12:31:03.657Z,97171.66
2023-02-19T12:32:10.246Z,97173.47
2023-02-19T12:33:31.085Z,97175.22
2023-02-19T12:34:33.019Z,97156.72
2023-02-19T12:35:53.895Z,97177.78
2023-02-19T12:36:58.961Z,97175.97
2023-02-19T12:38:16.345Z,97208.22
2023-02-19T12:39:28.111Z,97179.78
2023-02-19T12:40:49.628Z,97173.56
2023-02-19T12:42:16.569Z,97168.31
2023-02-19T12:43:20.501Z,97149.44
2023-02-19T12:44:35.671Z,97159.69
2023-02-19T12:45:48.446Z,97174.13
2023-02-19T12:46:53.516Z,97192.38
2023-02-19T12:48:02.164Z,97179.97